Time;durP1;ratioP1;P1;durP2;ratioP2;P2;SDS_P1;SDS_P2;PMS_P1;PMS_P2;Temp;Humidity;BMP_temperature;BMP_pressure;BME280_temperature;BME280_humidity;BME280_pressure;Samples;Min_cycle;Max_cycle;Signal;HPM_P1;HPM_P2
2022/11/17 00:00:18;;;;;;;8.27;5.07;;;;;;;9.72;100.00;98654.09;5096774;28;20039;-63
2022/11/17 00:02:44;;;;;;;10.27;5.57;;;;;;;9.75;100.00;98651.97;5124293;27;20453;-63
2022/11/17 00:05:12;;;;;;;7.72;6.43;;;;;;;9.72;100.00;98651.44;5091915;28;20028;-63
2022/11/17 00:07:37;;;;;;;7.20;5.05;;;;;;;9.72;100.00;98632.84;5098965;28;20048;-63
2022/11/17 00:10:04;;;;;;;9.52;5.45;;;;;;;9.74;100.00;98633.56;5111113;28;20042;-63
2022/11/17 00:15:13;;;;;;;9.77;5.32;;;;;;;9.77;100.00;98631.44;5085963;28;20090;-63
2022/11/17 00:17:38;;;;;;;10.05;5.05;;;;;;;9.81;100.00;98636.47;5096606;28;20556;-63
2022/11/17 00:22:52;;;;;;;9.00;5.50;;;;;;;9.81;100.00;98618.72;5094132;28;20411;-63
2022/11/17 00:25:17;;;;;;;11.32;5.28;;;;;;;9.82;100.00;98608.91;5085992;28;20029;-63
2022/11/17 00:27:43;;;;;;;7.45;4.80;;;;;;;9.79;100.00;98599.41;5061264;28;20471;-63
2022/11/17 00:34:03;;;;;;;10.40;5.40;;;;;;;9.76;100.00;98589.97;5090641;28;20035;-63
2022/11/17 00:35:48;;;;;;;9.03;5.07;;;;;;;9.77;100.00;98577.53;5074003;28;20043;-63
2022/11/17 00:38:16;;;;;;;10.73;5.43;;;;;;;9.76;100.00;98573.19;5117982;27;20032;-63
2022/11/17 00:40:42;;;;;;;8.25;5.35;;;;;;;9.71;100.00;98559.53;5096886;28;20420;-63
2022/11/17 00:43:07;;;;;;;11.23;5.63;;;;;;;9.76;100.00;98566.06;5105092;28;20058;-63
2022/11/17 00:45:35;;;;;;;8.02;5.45;;;;;;;9.73;100.00;98565.50;5091785;28;20034;-63
2022/11/17 00:48:00;;;;;;;7.18;5.47;;;;;;;9.73;100.00;98545.09;5093062;28;20036;-63
2022/11/17 00:50:26;;;;;;;5.40;4.70;;;;;;;9.79;100.00;98556.94;5090669;28;20387;-63
2022/11/17 00:52:51;;;;;;;10.40;5.40;;;;;;;9.75;100.00;98551.09;5081483;28;20110;-63
2022/11/17 00:55:17;;;;;;;6.43;4.57;;;;;;;9.79;100.00;98546.31;5086187;28;20039;-63
2022/11/17 00:57:42;;;;;;;9.98;4.70;;;;;;;9.80;100.00;98553.34;5094239;27;20028;-63
2022/11/17 01:00:09;;;;;;;6.20;4.43;;;;;;;9.75;100.00;98551.09;5080191;28;20028;-64
2022/11/17 01:02:34;;;;;;;7.30;5.18;;;;;;;9.76;100.00;98528.91;5072411;28;20104;-63
2022/11/17 01:05:02;;;;;;;6.03;4.53;;;;;;;9.78;100.00;98532.22;5089429;28;20523;-63
2022/11/17 01:07:30;;;;;;;6.97;4.85;;;;;;;9.75;100.00;98513.94;5089220;28;20074;-63
2022/11/17 01:09:57;;;;;;;6.65;4.28;;;;;;;9.78;100.00;98508.34;5084346;28;20058;-63
2022/11/17 01:12:23;;;;;;;5.55;3.90;;;;;;;9.84;100.00;98517.53;5065297;28;20043;-63
2022/11/17 01:14:51;;;;;;;5.88;3.65;;;;;;;9.89;100.00;98501.16;5093099;28;20036;-64
2022/11/17 01:17:16;;;;;;;5.57;3.67;;;;;;;9.88;100.00;98495.03;5092824;28;20107;-63
2022/11/17 01:19:41;;;;;;;5.97;3.85;;;;;;;9.95;100.00;98508.53;5095091;28;20116;-64
2022/11/17 01:22:07;;;;;;;6.53;3.42;;;;;;;9.94;100.00;98510.34;5082752;28;20115;-64
2022/11/17 01:24:35;;;;;;;4.28;3.55;;;;;;;9.97;100.00;98499.41;5104215;28;20077;-63
2022/11/17 01:27:00;;;;;;;4.32;3.55;;;;;;;9.99;100.00;98491.28;5091490;28;20040;-63
2022/11/17 01:29:25;;;;;;;4.68;3.72;;;;;;;10.02;100.00;98490.97;5076714;28;20169;-64
2022/11/17 01:31:51;;;;;;;4.85;3.28;;;;;;;9.98;100.00;98494.94;5094692;28;20036;-63
2022/11/17 01:34:17;;;;;;;5.07;3.63;;;;;;;10.02;100.00;98506.91;5092497;28;20637;-63
2022/11/17 01:39:29;;;;;;;5.25;3.40;;;;;;;10.07;100.00;98464.81;5073231;28;20043;-63
2022/11/17 01:41:55;;;;;;;5.50;3.63;;;;;;;10.06;100.00;98460.50;5113669;27;20115;-63
2022/11/17 01:44:52;;;;;;;5.70;3.20;;;;;;;10.04;100.00;98480.22;5096059;28;20028;-63
2022/11/17 01:47:36;;;;;;;5.97;3.42;;;;;;;10.06;100.00;98494.16;5076344;28;20483;-63
2022/11/17 01:50:16;;;;;;;3.83;3.25;;;;;;;10.06;100.00;98481.75;5092116;28;20036;-63
2022/11/17 01:52:43;;;;;;;4.65;3.20;;;;;;;10.04;100.00;98485.53;5087922;28;20023;-63
2022/11/17 01:55:10;;;;;;;4.80;3.15;;;;;;;10.10;100.00;98487.59;5074042;28;20032;-63
2022/11/17 01:57:41;;;;;;;4.80;3.28;;;;;;;10.06;100.00;98494.16;5095498;28;20032;-64
2022/11/17 02:00:09;;;;;;;4.03;3.25;;;;;;;10.02;100.00;98491.81;5097123;28;20038;-63
2022/11/17 02:02:38;;;;;;;5.80;3.08;;;;;;;10.04;100.00;98488.19;5083768;28;20024;-63
2022/11/17 02:05:06;;;;;;;3.97;3.20;;;;;;;10.07;100.00;98474.63;5119156;27;20082;-63
2022/11/17 02:07:36;;;;;;;3.70;3.40;;;;;;;10.09;100.00;98475.28;5074214;28;20028;-64
2022/11/17 02:10:04;;;;;;;3.70;3.40;;;;;;;10.01;100.00;98468.09;5086328;28;20064;-64
2022/11/17 02:12:31;;;;;;;4.50;3.08;;;;;;;10.09;100.00;98480.59;5073047;28;20537;-63
2022/11/17 02:14:57;;;;;;;5.53;3.72;;;;;;;10.14;100.00;98475.66;5072190;28;20483;-64
2022/11/17 02:17:32;;;;;;;4.97;3.15;;;;;;;10.13;100.00;98466.03;5087602;28;20023;-63
2022/11/17 02:20:12;;;;;;;2.95;2.70;;;;;;;10.15;100.00;98451.63;5076628;28;20491;-63
2022/11/17 02:22:40;;;;;;;;;;;;;;;10.20;100.00;98453.78;5088041;28;20389;-64
2022/11/17 02:25:32;;;;;;;4.28;2.90;;;;;;;10.21;100.00;98437.72;5089365;27;19912;-64
2022/11/17 02:28:00;;;;;;;3.90;2.75;;;;;;;10.23;100.00;98424.25;5064846;28;20048;-63
2022/11/17 02:30:38;;;;;;;3.45;2.58;;;;;;;10.23;100.00;98433.09;5076368;28;20122;-63
2022/11/17 02:33:09;;;;;;;3.10;2.25;;;;;;;10.28;100.00;98423.84;5088936;28;20426;-63
2022/11/17 02:35:48;;;;;;;3.67;2.40;;;;;;;10.27;100.00;98417.69;5082645;28;20029;-63
2022/11/17 02:38:27;;;;;;;2.70;2.33;;;;;;;10.22;100.00;98393.38;5089108;28;20104;-64
2022/11/17 02:41:15;;;;;;;2.08;1.63;;;;;;;10.29;100.00;98404.25;5071184;28;20107;-63
2022/11/17 02:44:04;;;;;;;3.38;2.50;;;;;;;10.26;100.00;98394.72;5080120;28;20497;-63
2022/11/17 02:47:21;;;;;;;2.63;2.40;;;;;;;10.27;100.00;98401.75;5075303;28;20040;-64
2022/11/17 02:50:00;;;;;;;3.63;2.45;;;;;;;10.22;100.00;98386.25;5029675;28;20603;-63
2022/11/17 02:52:28;;;;;;;2.97;2.28;;;;;;;10.16;100.00;98380.72;5036579;28;20041;-63
2022/11/17 02:54:59;;;;;;;5.10;2.58;;;;;;;10.16;100.00;98378.06;5056775;28;20039;-63
2022/11/17 02:57:33;;;;;;;4.60;2.53;;;;;;;10.21;100.00;98378.44;5112941;27;20051;-64
2022/11/17 03:00:02;;;;;;;2.83;2.42;;;;;;;10.18;100.00;98371.63;5090033;28;20550;-63
2022/11/17 03:03:02;;;;;;;4.05;2.25;;;;;;;10.19;100.00;98383.06;5074230;28;20042;-63
2022/11/17 03:06:09;;;;;;;2.53;2.33;;;;;;;10.17;100.00;98377.06;5079077;28;20484;-63
2022/11/17 03:08:46;;;;;;;2.40;1.98;;;;;;;10.14;100.00;98372.06;5089665;28;20084;-63
2022/11/17 03:11:12;;;;;;;3.80;2.20;;;;;;;10.11;100.00;98361.75;5071215;28;20035;-63
2022/11/17 03:14:05;;;;;;;2.70;2.17;;;;;;;10.12;100.00;98360.78;5084464;28;20036;-63
2022/11/17 03:16:39;;;;;;;2.25;2.05;;;;;;;10.05;100.00;98357.06;5093522;28;20042;-63
2022/11/17 03:19:36;;;;;;;2.63;2.17;;;;;;;10.04;100.00;98355.41;5095088;28;20035;-63
2022/11/17 03:22:24;;;;;;;2.47;2.10;;;;;;;10.05;100.00;98352.59;5070575;28;20382;-63
2022/11/17 03:24:54;;;;;;;2.10;2.00;;;;;;;10.00;100.00;98349.59;5071283;28;20036;-63
2022/11/17 03:27:22;;;;;;;3.97;2.17;;;;;;;10.04;100.00;98342.13;5078625;28;20031;-63
2022/11/17 03:29:53;;;;;;;3.33;2.20;;;;;;;10.00;100.00;98341.63;5123585;27;20058;-63
2022/11/17 03:32:22;;;;;;;3.00;2.30;;;;;;;9.90;100.00;98322.28;5113064;27;20028;-63
2022/11/17 03:35:04;;;;;;;2.55;1.90;;;;;;;10.03;100.00;98330.69;5091064;28;20099;-63
2022/11/17 03:37:33;;;;;;;2.17;2.08;;;;;;;9.97;100.00;98318.00;5080217;28;20031;-63
2022/11/17 03:40:07;;;;;;;2.30;2.13;;;;;;;10.02;100.00;98329.81;5069037;28;20035;-63
2022/11/17 03:42:35;;;;;;;2.40;2.20;;;;;;;10.00;100.00;98326.50;5081902;28;20036;-63
2022/11/17 03:45:16;;;;;;;2.53;1.95;;;;;;;10.01;100.00;98316.72;5089251;28;20027;-63
2022/11/17 03:47:43;;;;;;;2.08;1.98;;;;;;;10.00;100.00;98307.94;5091369;28;20031;-63
2022/11/17 03:50:20;;;;;;;2.03;1.83;;;;;;;10.06;100.00;98305.63;5090404;28;20039;-63
2022/11/17 03:52:47;;;;;;;2.03;1.80;;;;;;;10.07;100.00;98316.09;5102199;28;20032;-64
2022/11/17 03:55:16;;;;;;;2.50;2.30;;;;;;;10.11;100.00;98305.97;5088682;28;20479;-63
2022/11/17 03:57:59;;;;;;;2.25;2.00;;;;;;;10.13;100.00;98306.66;5076042;28;20093;-64
2022/11/17 04:00:25;;;;;;;2.65;1.88;;;;;;;10.14;100.00;98311.81;5082756;28;20031;-63
2022/11/17 04:02:54;;;;;;;4.85;2.20;;;;;;;10.18;100.00;98309.69;5082709;28;20479;-63
2022/11/17 04:05:20;;;;;;;2.50;2.25;;;;;;;10.19;100.00;98293.59;5085871;28;20041;-63
2022/11/17 04:07:46;;;;;;;4.57;2.20;;;;;;;10.18;100.00;98291.94;5074998;28;20056;-63
2022/11/17 04:10:15;;;;;;;4.72;2.60;;;;;;;10.23;100.00;98297.63;5074298;28;20036;-63
2022/11/17 04:16:10;;;;;;;2.55;2.10;;;;;;;10.28;100.00;98301.66;5088387;28;20046;-63
2022/11/17 04:18:17;;;;;;;2.60;2.03;;;;;;;10.29;100.00;98313.94;5086959;28;20032;-63
2022/11/17 04:20:51;;;;;;;2.25;1.80;;;;;;;10.32;99.96;98313.59;5084920;28;20023;-63
2022/11/17 04:23:19;;;;;;;2.15;1.95;;;;;;;10.30;100.00;98297.00;5088258;28;20031;-64
2022/11/17 04:28:36;;;;;;;;;;;;;;;10.32;100.00;98302.97;5094704;28;20037;-64
2022/11/17 04:31:06;;;;;;;3.85;2.25;;;;;;;10.20;100.00;98299.72;5095326;28;20385;-64
2022/11/17 04:33:32;;;;;;;3.97;2.63;;;;;;;10.21;100.00;98312.88;5094430;28;20035;-64
2022/11/17 04:35:57;;;;;;;6.45;2.55;;;;;;;10.13;100.00;98291.56;5094395;28;20115;-64
2022/11/17 04:38:23;;;;;;;3.25;2.25;;;;;;;10.09;100.00;98282.25;5085832;28;20672;-64
2022/11/17 04:43:32;;;;;;;7.03;2.58;;;;;;;10.06;100.00;98268.44;5073867;28;20101;-64
2022/11/17 04:46:01;;;;;;;4.57;2.65;;;;;;;10.04;100.00;98273.09;5100189;28;20044;-64
2022/11/17 04:48:27;;;;;;;4.70;2.53;;;;;;;9.98;100.00;98263.94;5096827;28;20040;-64
2022/11/17 04:50:54;;;;;;;5.35;2.70;;;;;;;9.99;100.00;98255.78;5093747;28;20032;-64
2022/11/17 04:53:20;;;;;;;9.05;2.80;;;;;;;9.98;100.00;98251.47;5092169;28;20032;-63
2022/11/17 04:55:45;;;;;;;3.58;2.53;;;;;;;9.99;100.00;98253.13;5097724;28;20042;-63
2022/11/17 04:58:11;;;;;;;7.35;2.75;;;;;;;9.99;100.00;98258.44;5085562;28;20483;-63
2022/11/17 05:00:36;;;;;;;4.88;2.42;;;;;;;10.00;100.00;98254.81;5082474;28;20071;-63
2022/11/17 05:03:01;;;;;;;4.95;2.92;;;;;;;10.00;100.00;98249.50;5092255;28;20038;-63
2022/11/17 05:05:30;;;;;;;4.57;2.67;;;;;;;9.96;100.00;98244.66;5091767;28;20063;-64
2022/11/17 05:07:55;;;;;;;5.20;2.50;;;;;;;9.94;100.00;98260.75;5073478;28;20041;-64
2022/11/17 05:13:20;;;;;;;6.72;3.10;;;;;;;9.95;100.00;98257.09;5082848;28;20082;-64
2022/11/17 05:13:26;;;;;;;5.38;2.95;;;;;;;9.96;100.00;98268.56;5084015;28;20048;-64
2022/11/17 05:18:41;;;;;;;6.47;2.80;;;;;;;9.91;100.00;98255.75;5073590;28;20055;-64
2022/11/17 05:21:08;;;;;;;6.88;2.95;;;;;;;9.97;100.00;98270.22;5078098;28;20032;-64
2022/11/17 05:26:17;;;;;;;10.13;3.33;;;;;;;9.99;100.00;98297.44;5073623;28;20105;-64
2022/11/17 05:28:43;;;;;;;8.73;3.13;;;;;;;9.92;100.00;98291.09;5077679;28;20036;-64
2022/11/17 05:31:09;;;;;;;4.57;2.35;;;;;;;10.04;100.00;98300.47;5094106;28;20106;-65
2022/11/17 05:33:37;;;;;;;10.05;2.85;;;;;;;10.01;100.00;98298.97;5091519;28;20040;-64
2022/11/17 05:36:06;;;;;;;9.52;3.08;;;;;;;10.06;100.00;98301.16;5083788;28;20047;-64
2022/11/17 05:38:32;;;;;;;7.55;3.13;;;;;;;10.04;100.00;98307.63;5073148;28;20525;-64
2022/11/17 05:40:57;;;;;;;9.05;3.00;;;;;;;10.04;100.00;98305.78;5087550;28;20028;-64
2022/11/17 05:43:23;;;;;;;8.68;3.22;;;;;;;10.05;100.00;98304.78;5076256;28;20083;-64
2022/11/17 05:45:50;;;;;;;6.43;2.67;;;;;;;10.05;100.00;98303.97;5086709;28;20040;-64
2022/11/17 05:48:16;;;;;;;7.63;3.33;;;;;;;10.05;100.00;98307.44;5089843;28;20047;-64
2022/11/17 05:50:41;;;;;;;6.68;3.30;;;;;;;10.04;100.00;98316.41;5108914;28;20031;-64
2022/11/17 05:53:07;;;;;;;8.55;3.08;;;;;;;10.04;100.00;98307.63;5108183;28;20088;-64
2022/11/17 05:55:33;;;;;;;9.15;3.28;;;;;;;10.06;100.00;98308.28;5069759;28;20403;-64
2022/11/17 05:58:08;;;;;;;9.55;3.10;;;;;;;10.07;100.00;98310.78;5087649;28;20746;-64
2022/11/17 06:00:37;;;;;;;7.82;3.13;;;;;;;10.07;100.00;98315.25;5084712;28;20047;-64
2022/11/17 06:03:19;;;;;;;12.15;3.70;;;;;;;10.08;100.00;98324.88;5076792;28;20028;-64
2022/11/17 06:05:45;;;;;;;12.88;4.03;;;;;;;10.05;100.00;98320.72;5097727;28;20028;-63
2022/11/17 06:08:13;;;;;;;9.52;3.33;;;;;;;10.04;100.00;98329.69;5103951;28;20079;-65
2022/11/17 06:10:39;;;;;;;11.20;3.45;;;;;;;10.05;100.00;98327.84;5090804;28;20039;-63
2022/11/17 06:13:04;;;;;;;9.32;3.50;;;;;;;10.07;100.00;98332.03;5092033;28;20047;-63
2022/11/17 06:15:30;;;;;;;10.73;3.47;;;;;;;10.07;100.00;98336.50;5079104;28;20055;-63
2022/11/17 06:18:01;;;;;;;10.65;3.90;;;;;;;10.06;100.00;98335.69;5079686;28;20015;-63
2022/11/17 06:20:41;;;;;;;6.18;3.25;;;;;;;10.06;100.00;98343.66;5096471;27;20094;-63
2022/11/17 06:23:09;;;;;;;10.73;3.40;;;;;;;10.05;100.00;98346.44;5092685;28;20024;-63
2022/11/17 06:25:36;;;;;;;8.48;3.72;;;;;;;10.04;100.00;98350.09;5089303;28;20024;-63
2022/11/17 06:28:05;;;;;;;8.45;3.15;;;;;;;10.04;100.00;98352.75;5072206;28;20046;-63
2022/11/17 06:30:30;;;;;;;9.82;3.47;;;;;;;10.01;100.00;98346.75;5093288;28;20493;-63
2022/11/17 06:32:59;;;;;;;9.85;3.35;;;;;;;10.01;100.00;98353.91;5090846;28;20027;-63
2022/11/17 06:35:27;;;;;;;9.85;3.45;;;;;;;9.97;100.00;98369.31;5094780;28;20024;-63
2022/11/17 06:37:53;;;;;;;4.75;2.83;;;;;;;9.93;100.00;98364.44;5071989;28;20426;-63
2022/11/17 06:40:18;;;;;;;5.25;2.80;;;;;;;9.88;100.00;98354.31;5082530;28;20047;-63
2022/11/17 06:45:33;;;;;;;7.43;3.10;;;;;;;9.86;100.00;98358.09;5083110;28;20051;-63
2022/11/17 06:47:58;;;;;;;5.07;2.78;;;;;;;9.88;100.00;98362.28;5088018;28;20561;-63
2022/11/17 06:50:23;;;;;;;6.60;2.90;;;;;;;9.80;100.00;98362.19;5094715;28;20073;-63
2022/11/17 06:52:49;;;;;;;8.07;2.60;;;;;;;9.75;100.00;98373.25;5091772;28;20114;-64
2022/11/17 06:55:15;;;;;;;9.45;3.13;;;;;;;9.75;100.00;98367.97;5080964;28;20027;-64
2022/11/17 06:57:41;;;;;;;7.35;2.60;;;;;;;9.72;100.00;98370.91;5111512;28;20418;-64
2022/11/17 07:00:07;;;;;;;6.75;3.40;;;;;;;9.68;100.00;98384.66;5111470;28;20035;-64
2022/11/17 07:02:32;;;;;;;5.35;3.03;;;;;;;9.72;100.00;98381.53;5094618;28;20113;-63
2022/11/17 07:04:58;;;;;;;12.50;2.90;;;;;;;9.65;100.00;98375.19;5092088;28;20173;-63
2022/11/17 07:07:23;;;;;;;7.38;3.03;;;;;;;9.66;100.00;98386.63;5108698;28;20497;-64
2022/11/17 07:09:51;;;;;;;6.13;3.00;;;;;;;9.67;100.00;98380.31;5111517;28;20499;-64
2022/11/17 07:12:16;;;;;;;6.07;2.70;;;;;;;9.61;100.00;98395.03;5112172;28;20063;-63
2022/11/17 07:14:44;;;;;;;4.65;2.80;;;;;;;9.59;100.00;98389.06;5102485;28;20070;-63
2022/11/17 07:17:09;;;;;;;7.40;3.15;;;;;;;9.60;100.00;98397.84;5124614;28;20032;-64
2022/11/17 07:19:35;;;;;;;7.55;2.95;;;;;;;9.58;100.00;98405.13;5083370;28;20111;-64
2022/11/17 07:22:00;;;;;;;9.05;2.65;;;;;;;9.55;100.00;98390.31;5103657;28;20071;-63
2022/11/17 07:24:26;;;;;;;6.28;3.00;;;;;;;9.53;100.00;98403.75;5098278;28;20462;-64
2022/11/17 07:26:51;;;;;;;9.20;3.00;;;;;;;9.52;100.00;98394.09;5099083;28;20024;-64
2022/11/17 07:29:17;;;;;;;4.32;2.58;;;;;;;9.52;100.00;98410.03;5073432;28;20440;-63
2022/11/17 07:31:43;;;;;;;6.93;2.47;;;;;;;9.51;100.00;98411.03;5074909;28;20526;-63
2022/11/17 07:34:09;;;;;;;6.50;2.60;;;;;;;9.43;100.00;98404.78;5074172;28;20029;-63
2022/11/17 07:36:34;;;;;;;5.60;2.55;;;;;;;9.45;100.00;98416.94;5082191;28;20547;-63
2022/11/17 07:39:00;;;;;;;4.97;2.65;;;;;;;9.46;100.00;98423.06;5095403;28;20035;-63
2022/11/17 07:41:28;;;;;;;6.65;3.10;;;;;;;9.51;100.00;98418.97;5094581;28;20403;-63
2022/11/17 07:43:54;;;;;;;6.03;2.72;;;;;;;9.44;100.00;98419.72;5090437;28;20027;-63
2022/11/17 07:46:19;;;;;;;5.55;2.53;;;;;;;9.43;100.00;98429.50;5094772;28;20055;-63
2022/11/17 07:48:47;;;;;;;4.35;2.80;;;;;;;9.45;100.00;98437.31;5106880;28;20378;-63
2022/11/17 07:51:13;;;;;;;5.00;2.42;;;;;;;9.45;100.00;98434.69;5148628;27;20031;-64
2022/11/17 07:53:42;;;;;;;4.95;2.65;;;;;;;9.41;100.00;98436.81;5115559;28;20026;-63
2022/11/17 07:56:12;;;;;;;5.15;2.88;;;;;;;9.44;100.00;98444.47;5114039;28;20034;-63
2022/11/17 07:58:38;;;;;;;4.82;2.72;;;;;;;9.45;100.00;98440.81;5113629;28;20047;-63
2022/11/17 08:01:05;;;;;;;4.32;2.70;;;;;;;9.44;100.00;98435.63;5102843;28;20113;-63
2022/11/17 08:03:31;;;;;;;5.18;2.88;;;;;;;9.47;100.00;98449.47;5093725;28;20024;-65
2022/11/17 08:06:04;;;;;;;4.22;2.72;;;;;;;9.45;100.00;98446.13;5093169;28;20028;-62
2022/11/17 08:08:30;;;;;;;5.72;3.00;;;;;;;9.43;100.00;98452.56;5084367;28;20047;-62
2022/11/17 08:10:55;;;;;;;5.90;2.90;;;;;;;9.41;100.00;98451.84;5086460;28;20033;-62
2022/11/17 08:13:24;;;;;;;4.15;2.75;;;;;;;9.42;100.00;98462.34;5095165;28;20491;-62
2022/11/17 08:15:55;;;;;;;4.85;2.92;;;;;;;9.40;100.00;98471.41;5094552;28;20059;-62
2022/11/17 08:18:23;;;;;;;4.88;2.40;;;;;;;9.41;100.00;98473.06;5100756;28;20011;-63
2022/11/17 08:20:49;;;;;;;6.80;2.80;;;;;;;9.38;100.00;98458.28;5114188;28;20030;-62
2022/11/17 08:23:15;;;;;;;4.30;3.05;;;;;;;9.40;100.00;98471.41;5113129;28;20092;-62
2022/11/17 08:25:40;;;;;;;5.40;2.70;;;;;;;9.39;100.00;98475.06;5113559;28;20508;-62
2022/11/17 08:28:06;;;;;;;5.00;2.90;;;;;;;9.38;100.00;98478.69;5112532;28;20024;-63
2022/11/17 08:30:34;;;;;;;6.75;2.70;;;;;;;9.35;100.00;98476.31;5111113;28;20027;-62
2022/11/17 08:33:01;;;;;;;3.80;2.50;;;;;;;9.32;100.00;98478.31;5097692;28;20097;-62
2022/11/17 08:35:27;;;;;;;4.53;2.60;;;;;;;9.31;100.00;98481.09;5092727;28;20085;-62
2022/11/17 08:37:53;;;;;;;6.97;2.50;;;;;;;9.28;100.00;98479.56;5099057;28;20031;-63
2022/11/17 08:40:26;;;;;;;5.75;2.90;;;;;;;9.24;100.00;98478.19;5114239;28;20382;-63
2022/11/17 08:42:53;;;;;;;7.93;2.55;;;;;;;9.26;100.00;98484.19;5113478;28;20026;-62
2022/11/17 08:45:19;;;;;;;4.63;2.30;;;;;;;9.21;100.00;98482.97;5114572;28;20034;-62
2022/11/17 08:47:44;;;;;;;4.88;2.60;;;;;;;9.23;100.00;98488.94;5111587;28;20478;-63
2022/11/17 08:50:10;;;;;;;5.32;2.88;;;;;;;9.22;100.00;98490.75;5092596;28;20116;-62
2022/11/17 08:52:36;;;;;;;5.28;2.45;;;;;;;9.26;100.00;98500.09;5094119;28;20020;-62
2022/11/17 08:55:06;;;;;;;5.60;2.65;;;;;;;9.24;100.00;98504.72;5092144;28;20062;-62
2022/11/17 08:57:32;;;;;;;6.10;2.63;;;;;;;9.22;100.00;98490.75;5076162;28;20020;-62
2022/11/17 09:00:00;;;;;;;5.47;2.90;;;;;;;9.28;100.00;98503.44;5093812;28;20039;-62
2022/11/17 09:02:25;;;;;;;3.50;2.65;;;;;;;9.23;100.00;98500.38;5092434;28;20433;-62
2022/11/17 09:04:51;;;;;;;6.80;2.78;;;;;;;9.27;100.00;98507.09;5075376;28;20028;-63
2022/11/17 09:07:17;;;;;;;5.05;2.85;;;;;;;9.30;100.00;98511.25;5093552;28;20039;-64
2022/11/17 09:09:45;;;;;;;5.65;2.70;;;;;;;9.29;100.00;98525.50;5095975;28;20047;-64
2022/11/17 09:12:10;;;;;;;5.75;2.67;;;;;;;9.27;100.00;98523.00;5112943;28;20052;-63
2022/11/17 09:14:36;;;;;;;5.70;2.50;;;;;;;9.29;100.00;98517.53;5113999;28;20383;-64
2022/11/17 09:17:02;;;;;;;6.40;2.65;;;;;;;9.26;100.00;98521.31;5113587;28;20028;-64
2022/11/17 09:19:28;;;;;;;3.88;2.40;;;;;;;9.28;100.00;98526.47;5110799;28;20100;-63
2022/11/17 09:21:53;;;;;;;6.53;3.10;;;;;;;9.26;100.00;98523.13;5104115;28;20028;-64
2022/11/17 09:24:19;;;;;;;7.38;3.47;;;;;;;9.30;100.00;98527.19;5093158;28;20031;-63
2022/11/17 09:26:52;;;;;;;3.95;2.70;;;;;;;9.28;100.00;98522.00;5092895;28;20031;-63
2022/11/17 09:29:18;;;;;;;5.63;2.85;;;;;;;9.24;100.00;98535.72;5111581;28;20030;-64
2022/11/17 09:31:43;;;;;;;7.03;2.88;;;;;;;9.28;100.00;98540.56;5113253;28;20036;-65
2022/11/17 09:34:09;;;;;;;5.60;2.70;;;;;;;9.32;100.00;98534.00;5113531;28;20031;-64
2022/11/17 09:36:35;;;;;;;8.48;3.22;;;;;;;9.35;100.00;98538.16;5112178;28;20394;-64
2022/11/17 09:39:00;;;;;;;6.15;2.92;;;;;;;9.49;100.00;98542.16;5093840;28;20486;-64
2022/11/17 09:41:37;;;;;;;5.72;2.95;;;;;;;9.54;100.00;98547.88;5111527;28;20024;-64
2022/11/17 09:44:29;;;;;;;5.30;2.55;;;;;;;9.59;98.93;98550.94;5106405;28;20471;-64
2022/11/17 09:46:58;;;;;;;5.32;2.53;;;;;;;9.64;98.90;98550.47;5087042;28;20027;-64
2022/11/17 09:49:42;;;;;;;7.40;3.20;;;;;;;9.74;100.00;98553.94;5091053;28;20035;-64
2022/11/17 09:52:24;;;;;;;5.90;2.75;;;;;;;9.69;100.00;98549.03;5088085;28;20081;-64
2022/11/17 09:55:00;;;;;;;8.43;2.70;;;;;;;9.88;99.16;98556.09;5090560;28;20025;-64
2022/11/17 09:57:47;;;;;;;4.13;2.65;;;;;;;9.82;98.01;98567.28;5089334;28;20479;-64
2022/11/17 10:00:23;;;;;;;5.53;2.88;;;;;;;9.77;98.07;98570.38;5090959;28;20020;-64
2022/11/17 10:02:50;;;;;;;5.78;2.67;;;;;;;9.79;96.48;98572.88;5108163;28;20027;-64
2022/11/17 10:05:23;;;;;;;3.80;2.60;;;;;;;9.80;96.95;98576.41;5090603;28;20026;-64
2022/11/17 10:07:51;;;;;;;6.82;2.72;;;;;;;9.81;96.87;98562.97;5092335;28;20043;-64
2022/11/17 10:10:42;;;;;;;5.40;2.50;;;;;;;9.91;97.07;98576.16;5089714;28;20071;-64
2022/11/17 10:13:29;;;;;;;4.63;2.50;;;;;;;9.92;97.16;98588.47;5116638;27;20111;-64
2022/11/17 10:16:13;;;;;;;3.90;2.80;;;;;;;9.96;93.60;98581.88;5091252;28;20111;-64
2022/11/17 10:18:38;;;;;;;4.28;2.75;;;;;;;10.07;93.58;98594.13;5090355;28;20031;-64
2022/11/17 10:21:06;;;;;;;5.72;2.67;;;;;;;10.13;93.46;98598.84;5085726;28;20036;-64
2022/11/17 10:23:42;;;;;;;3.55;2.60;;;;;;;10.27;92.70;98602.84;5091665;28;20024;-64
2022/11/17 10:26:13;;;;;;;3.53;2.42;;;;;;;10.32;92.99;98592.56;5091089;28;20046;-64
2022/11/17 10:28:41;;;;;;;4.80;2.30;;;;;;;10.36;91.62;98599.28;5085250;28;20101;-64
2022/11/17 10:31:13;;;;;;;5.13;2.47;;;;;;;10.45;90.56;98612.47;5092132;28;20032;-64
2022/11/17 10:33:42;;;;;;;5.43;2.70;;;;;;;10.56;90.71;98619.41;5076902;28;20498;-64
2022/11/17 10:36:20;;;;;;;5.40;3.00;;;;;;;10.63;89.57;98612.47;5124264;27;20039;-63
2022/11/17 10:38:53;;;;;;;5.38;2.22;;;;;;;10.67;88.92;98608.50;5091700;28;20028;-63
2022/11/17 10:41:21;;;;;;;5.65;2.30;;;;;;;10.73;87.54;98622.19;5092128;28;20073;-63
2022/11/17 10:44:03;;;;;;;3.40;2.28;;;;;;;10.76;88.50;98620.06;5092025;28;20028;-63
2022/11/17 10:46:29;;;;;;;3.35;2.25;;;;;;;10.75;87.04;98621.06;5091943;28;20036;-63
2022/11/17 10:48:59;;;;;;;4.80;2.53;;;;;;;10.73;88.33;98623.03;5090448;28;20103;-63
2022/11/17 10:51:27;;;;;;;4.32;2.22;;;;;;;10.66;88.03;98627.28;5092067;28;20110;-63
2022/11/17 10:54:14;;;;;;;3.63;2.10;;;;;;;10.65;88.06;98636.28;5092067;28;20031;-64
2022/11/17 10:56:50;;;;;;;2.72;1.92;;;;;;;10.59;88.27;98632.38;5069835;28;20442;-63
2022/11/17 10:59:25;;;;;;;4.82;2.40;;;;;;;10.55;87.71;98620.38;5070935;28;20027;-64
2022/11/17 11:01:52;;;;;;;4.93;2.17;;;;;;;10.56;87.78;98634.50;5118402;27;20024;-63
2022/11/17 11:04:34;;;;;;;3.92;2.00;;;;;;;10.50;88.71;98640.41;5092182;28;20408;-64
2022/11/17 11:07:18;;;;;;;3.78;1.90;;;;;;;10.46;89.42;98639.88;5071632;28;20483;-63
2022/11/17 11:10:02;;;;;;;4.63;2.17;;;;;;;10.44;91.60;98650.69;5070843;28;20060;-63
2022/11/17 11:12:33;;;;;;;5.28;2.53;;;;;;;10.41;91.08;98644.81;5071276;28;20036;-63
2022/11/17 11:15:01;;;;;;;4.53;2.70;;;;;;;10.39;91.84;98647.63;5072488;28;20025;-63
2022/11/17 11:17:28;;;;;;;3.65;2.70;;;;;;;10.40;90.88;98638.66;5092519;28;21347;-63
2022/11/17 11:19:54;;;;;;;6.28;2.92;;;;;;;10.36;90.34;98644.44;5090728;28;20023;-63
2022/11/17 11:22:39;;;;;;;3.50;2.15;;;;;;;10.36;90.11;98655.91;5092143;28;20475;-63
2022/11/17 11:25:42;;;;;;;4.47;2.60;;;;;;;10.44;88.69;98648.03;5092353;28;20409;-63
2022/11/17 11:28:32;;;;;;;6.18;2.30;;;;;;;10.38;88.99;98656.59;5095327;28;20111;-63
2022/11/17 11:31:27;;;;;;;3.78;2.38;;;;;;;10.42;87.94;98659.78;5090465;28;20024;-63
2022/11/17 11:34:01;;;;;;;6.60;2.40;;;;;;;10.38;87.26;98661.91;5088414;28;20028;-63
2022/11/17 11:36:49;;;;;;;3.47;2.60;;;;;;;10.38;88.94;98663.72;5091694;28;20119;-63
2022/11/17 11:39:41;;;;;;;3.67;2.25;;;;;;;10.36;90.07;98671.00;5100186;27;20103;-63
2022/11/17 11:42:39;;;;;;;6.10;2.15;;;;;;;10.35;89.98;98664.00;5120205;27;20036;-63
2022/11/17 11:45:10;;;;;;;4.00;2.30;;;;;;;10.31;88.93;98679.41;5070198;28;20036;-63
2022/11/17 11:47:44;;;;;;;4.18;2.45;;;;;;;10.34;90.10;98680.94;5099736;28;20493;-63
2022/11/17 11:50:32;;;;;;;5.18;2.45;;;;;;;10.36;89.00;98679.00;5090673;28;20028;-63
2022/11/17 11:53:27;;;;;;;3.30;2.28;;;;;;;10.39;87.47;98684.84;5092034;28;20428;-63
2022/11/17 11:56:27;;;;;;;5.20;2.10;;;;;;;10.42;87.67;98684.53;5088984;28;20036;-62
2022/11/17 11:58:52;;;;;;;;;;;;;;;10.50;87.51;98682.94;5085589;28;20043;-63
2022/11/17 12:01:20;;;;;;;6.13;2.30;;;;;;;10.46;85.49;98688.56;5115982;27;19916;-63
2022/11/17 12:04:35;;;;;;;4.78;2.50;;;;;;;10.49;86.69;98686.59;5098257;28;20474;-64
2022/11/17 12:07:27;;;;;;;4.03;2.20;;;;;;;10.49;87.07;98683.94;5052429;28;20044;-63
2022/11/17 12:10:37;;;;;;;4.18;2.42;;;;;;;10.53;86.22;98702.09;5088260;28;20111;-63
2022/11/17 12:13:05;;;;;;;5.45;2.88;;;;;;;10.58;84.47;98691.84;5091250;28;20115;-63
2022/11/17 12:15:33;;;;;;;5.10;2.45;;;;;;;10.57;85.20;98686.69;5093320;28;20024;-63
2022/11/17 12:18:25;;;;;;;3.75;2.35;;;;;;;10.60;84.19;98686.38;5094699;28;20024;-63